Southern Sonoma County Latest

20 Stations

15 Minute Data
as of 9/3/26 7:40 AM PDT
Station Date Time Temp (°F) RH (%) Dew Pt (°F) Wind Spd (mph) Wind Dir (°) Wind Gust (mph) Latest Rain (In) Daily Rain (In) Daily Min Temp (°F) Daily Max Temp (°F)
Upper Rincon Valley 9/3/26 0730 58.1   1.2 97   2 57.3   1.6 1.9   0.2 SSW | 197 5.0   1.1 0.00 0.00 55.3   0.6 58.2   0.5
Lower Bennett Valley 9/3/26 0730 60.8   1.9 94   0 59.2   1.8 2.0   0.8 SE | 138 4.4   0.8 0.00 0.02 55.2   2.7 60.9   1.5
Kenwood (Wildwood) 9/3/26 0730 58.9   0.5 96   2 57.8   1.0 0.4   0.7 NNE | 18 1.8   1.5 0.00 0.01 56.0   3.2 59.1   0.5
Crane Creek (Ranch 62) 9/3/26 0730 61.7   0.9 90   4 58.8   2.3 0.7   1.5 ESE | 114 3.4   2.3 0.00 0.01 59.7   2.5 61.9   0.6
Rohnert Park-West (Stony Point) 9/3/26 0730 61.1   1.2 97   1 60.3   1.4 0.7   0.4 SE | 138 5.6   1.2 0.00 0.01 60.0   5.3 61.6   1.5
Rice-Spivak Vineyard 9/3/26 0730 60.8   1.5 - - - - - - - 60.2   8.8 61.1   1.7
Cartograph Wines Base 9/3/26 0730 60.5   1.6 96   0 59.4   1.5 3.0   0.2 ESE | 107 5.4   0.9 0.00 0.02 59.7   4.4 60.6   1.7
Cartograph Wines Remote 9/3/26 0730 61.0   1.3 - - - - - - - 60.4   5.8 61.4   1.8
Penngrove (Asellus) 9/3/26 0730 62.5   1.9 85   4 57.9   0.7 5.1   0.1 ESE | 109 8.5   0.2 0.00 0.00 57.4   3.2 62.6   1.4
Sonoma Valley (Bedrock) 9/3/26 0730 58.8   1.4 92   2 56.7   0.8 - - - 0.00 0.00 54.6   2.0 59.0   1.3
Sonoma-West (Arnold) 9/3/26 0730 60.8   1.7 85   8 56.2   1.0 0.1   1.3 S | 182 1.1   1.3 0.00 0.00 56.1   3.4 60.8   1.7
Sonoma Valley HS 9/3/26 0730 60.8   1.3 92   6 58.5   0.3 1.2   1.2 E | 89 2.0   1.0 0.00 0.00 55.6   1.1 60.9   1.2
Sonoma East (Bundschu01) 9/3/26 0730 60.6   0.9 91   1 58.0   1.1 1.0   0.6 SE | 146 2.8   0.9 0.00 0.00 51.3   0.2 60.7   0.6
Sonoma-SE (Napoli) 9/3/26 0730 60.5   1.7 90   1 57.6   1.2 0.0   0.0 N | 0 0.0   1.4 0.00 0.01 52.2   1.2 60.8   1.6
Schellville (Sasaki) 2/7/26 1900 53.4   2.2 88   10 49.9   1.0 3.3   1.8 SW | 225 5.8   4.0 0.00 0.00 47.0   0.8 62.8   8.4
Petaluma (Ranch 10) 9/3/26 0730 61.0   0.7 87   4 57.1   0.4 0.0   0.8 N | 0 0.0   2.2 0.00 0.00 57.9   6.2 61.2   0.7
Carneros (Ranch 71) 9/3/26 0730 60.2   0.3 88   1 56.7   0.7 0.8   0.4 SSW | 197 2.9   0.0 0.00 0.00 57.4   0.5 60.4   0.2
Ricci Vineyards (Carneros) 9/3/26 0730 60.4   2.3 89   3 57.3   1.2 0.6   0.2 SE | 134 1.8   0.4 0.00 0.00 54.1   2.1 60.6   2.2
Carneros Upper (Ranch 81) 9/3/26 0730 60.4   0.5 88   1 56.8   0.8 3.3   2.1 SW | 215 7.7   2.3 - - 57.1   0.3 60.4   0.5
Carneros Lower (Ranch 81) 9/3/26 0730 60.3   0.9 92   0 57.9   0.9 0.2   0.2 S | 175 1.5   1.2 0.00 0.00 53.7   1.7 60.3   0.9
Max     62.5 97 60.3 5.1 - 8.5 0.00 0.02 60.4 62.6
Avg     60.5 91 57.8 1.3 - 3.4 0.00 - - -
Min     58.1 85 56.2 0.0 - 0.0 0.00 0.00 51.3 58.2